Time;durP1;ratioP1;P1;durP2;ratioP2;P2;SDS_P1;SDS_P2;PMS_P1;PMS_P2;Temp;Humidity;BMP_temperature;BMP_pressure;BME280_temperature;BME280_humidity;BME280_pressure;Samples;Min_cycle;Max_cycle;Signal;HPM_P1;HPM_P2
2023/05/30 00:00:57;;;;;;;3.50;1.55;;;11.60;73.50;;;;;;5010934;28;20056;-64
2023/05/30 00:03:23;;;;;;;0.00;0.00;;;11.60;73.60;;;;;;4995235;28;20418;-64
2023/05/30 00:05:49;;;;;;;0.17;0.17;;;11.60;73.60;;;;;;5028713;28;20045;-64
2023/05/30 00:08:15;;;;;;;0.00;0.00;;;11.60;73.60;;;;;;4991596;28;20231;-65
2023/05/30 00:10:41;;;;;;;0.00;0.00;;;11.60;73.30;;;;;;5021043;28;20147;-64
2023/05/30 00:13:07;;;;;;;0.00;0.00;;;11.60;73.40;;;;;;5009229;28;20506;-65
2023/05/30 00:15:32;;;;;;;0.20;0.20;;;11.60;73.40;;;;;;5028413;28;20138;-64
2023/05/30 00:18:00;;;;;;;0.05;0.05;;;11.60;73.30;;;;;;5027556;28;20049;-64
2023/05/30 00:20:29;;;;;;;5.57;1.00;;;11.60;73.60;;;;;;5021017;28;20506;-65
2023/05/30 00:22:58;;;;;;;0.30;0.30;;;11.60;73.50;;;;;;5028805;28;20065;-65
2023/05/30 00:25:24;;;;;;;0.00;0.00;;;11.60;73.40;;;;;;5029195;28;20042;-65
2023/05/30 00:27:50;;;;;;;0.00;0.00;;;11.60;73.10;;;;;;5028759;28;20045;-65
2023/05/30 00:30:16;;;;;;;0.10;0.10;;;11.50;73.30;;;;;;5028380;28;20124;-65
2023/05/30 00:32:42;;;;;;;0.47;0.47;;;11.60;73.40;;;;;;5028610;28;20195;-65
2023/05/30 00:35:08;;;;;;;0.00;0.00;;;11.60;73.40;;;;;;5029081;28;20053;-65
2023/05/30 00:37:33;;;;;;;0.00;0.00;;;11.60;73.30;;;;;;4994371;28;20045;-64
2023/05/30 00:39:59;;;;;;;0.00;0.00;;;11.60;73.40;;;;;;5028797;28;20053;-64
2023/05/30 00:42:28;;;;;;;0.00;0.00;;;11.60;73.40;;;;;;5028113;28;20037;-64
2023/05/30 00:44:54;;;;;;;0.00;0.00;;;11.60;73.60;;;;;;5011030;28;20046;-65
2023/05/30 00:47:20;;;;;;;0.00;0.00;;;11.60;73.50;;;;;;5028317;28;20116;-64
2023/05/30 00:49:47;;;;;;;0.00;0.00;;;11.60;73.80;;;;;;5028217;28;20044;-65
2023/05/30 00:52:13;;;;;;;0.00;0.00;;;11.50;73.90;;;;;;4994999;28;20056;-65
2023/05/30 00:54:42;;;;;;;0.00;0.00;;;11.60;74.10;;;;;;5028703;28;20037;-65
2023/05/30 00:57:08;;;;;;;0.00;0.00;;;11.60;73.80;;;;;;5028064;28;20146;-64
2023/05/30 00:59:34;;;;;;;0.25;0.25;;;11.60;73.80;;;;;;5028254;28;20491;-65
2023/05/30 01:02:00;;;;;;;0.00;0.00;;;11.50;73.70;;;;;;5031063;28;20044;-65
2023/05/30 01:04:26;;;;;;;2.05;1.55;;;11.50;73.70;;;;;;5031850;28;20049;-65
2023/05/30 01:06:52;;;;;;;0.00;0.00;;;11.50;73.70;;;;;;5014196;28;20104;-65
2023/05/30 01:09:18;;;;;;;0.63;0.63;;;11.50;73.80;;;;;;5031558;28;20057;-65
2023/05/30 01:12:03;;;;;;;0.00;0.00;;;11.50;73.60;;;;;;5014472;28;20045;-65
2023/05/30 01:14:41;;;;;;;0.00;0.00;;;11.50;73.70;;;;;;5031988;28;20052;-66
2023/05/30 01:17:20;;;;;;;0.00;0.00;;;11.50;73.60;;;;;;5032096;28;20107;-64
2023/05/30 01:20:11;;;;;;;0.00;0.00;;;11.50;73.50;;;;;;5020145;28;20041;-65
2023/05/30 01:22:54;;;;;;;0.00;0.00;;;11.50;73.60;;;;;;5031712;28;20067;-65
2023/05/30 01:25:36;;;;;;;0.00;0.00;;;11.50;73.70;;;;;;5014341;28;20049;-65
2023/05/30 01:28:05;;;;;;;;;;;11.50;73.70;;;;;;5031867;28;20503;-66
2023/05/30 01:30:32;;;;;;;0.00;0.00;;;11.50;73.60;;;;;;5013700;28;20415;-66
2023/05/30 01:32:59;;;;;;;0.00;0.00;;;11.50;73.60;;;;;;5031472;28;20041;-65
2023/05/30 01:35:24;;;;;;;0.00;0.00;;;11.50;73.70;;;;;;5014275;28;20073;-66
2023/05/30 01:37:50;;;;;;;0.00;0.00;;;11.50;73.60;;;;;;4996957;28;20473;-66
2023/05/30 01:40:25;;;;;;;0.00;0.00;;;11.50;73.50;;;;;;5031272;28;20041;-65
2023/05/30 01:43:15;;;;;;;0.00;0.00;;;11.50;73.70;;;;;;5031081;28;20136;-65
2023/05/30 01:45:58;;;;;;;0.03;0.03;;;11.50;73.50;;;;;;4998034;28;20049;-65
2023/05/30 01:48:53;;;;;;;0.90;0.90;;;11.50;73.60;;;;;;5012144;28;20046;-65
2023/05/30 01:51:27;;;;;;;0.10;0.10;;;11.50;73.70;;;;;;4997232;28;20060;-65
2023/05/30 01:53:58;;;;;;;0.00;0.00;;;11.60;73.60;;;;;;5031140;28;20046;-65
2023/05/30 01:56:26;;;;;;;0.00;0.00;;;11.50;73.60;;;;;;5031261;28;20048;-65
2023/05/30 01:58:52;;;;;;;0.00;0.00;;;11.50;73.60;;;;;;5013579;28;20046;-65
2023/05/30 02:01:19;;;;;;;2.05;0.98;;;11.60;73.70;;;;;;5031128;28;20091;-65
2023/05/30 02:03:47;;;;;;;0.00;0.00;;;11.60;73.70;;;;;;5013666;28;20583;-65
2023/05/30 02:06:12;;;;;;;0.00;0.00;;;11.60;73.60;;;;;;5030771;28;20305;-65
2023/05/30 02:08:38;;;;;;;0.03;0.03;;;11.60;73.70;;;;;;5018902;28;20473;-65
2023/05/30 02:11:04;;;;;;;0.00;0.00;;;11.60;73.90;;;;;;5031003;28;20567;-65
2023/05/30 02:13:30;;;;;;;1.10;1.00;;;11.60;73.80;;;;;;5030272;28;20049;-65
2023/05/30 02:15:55;;;;;;;0.70;0.70;;;11.60;73.90;;;;;;4997134;28;20118;-66
2023/05/30 02:18:21;;;;;;;0.20;0.20;;;11.60;73.70;;;;;;5030067;28;20072;-65
2023/05/30 02:20:46;;;;;;;3.25;0.47;;;11.60;73.70;;;;;;5013255;28;20079;-65
2023/05/30 02:23:12;;;;;;;1.23;1.17;;;11.60;74.00;;;;;;5028039;28;20151;-66
2023/05/30 02:25:38;;;;;;;0.00;0.00;;;11.60;74.10;;;;;;5029040;28;20045;-65
2023/05/30 02:28:03;;;;;;;0.00;0.00;;;11.60;74.20;;;;;;5002268;28;20435;-65
2023/05/30 02:30:29;;;;;;;0.10;0.10;;;11.60;74.00;;;;;;5008939;28;20089;-66
2023/05/30 02:32:54;;;;;;;0.00;0.00;;;11.70;74.20;;;;;;5029699;28;20056;-66
2023/05/30 02:35:20;;;;;;;0.00;0.00;;;11.60;74.20;;;;;;5019636;28;20041;-66
2023/05/30 02:37:46;;;;;;;0.88;0.50;;;11.60;74.10;;;;;;5011834;28;20049;-65
2023/05/30 02:40:12;;;;;;;0.15;0.15;;;11.70;74.30;;;;;;5029816;28;20567;-66
2023/05/30 02:42:38;;;;;;;0.10;0.10;;;11.60;74.20;;;;;;5001182;28;20394;-66
2023/05/30 02:45:04;;;;;;;0.00;0.00;;;11.70;74.10;;;;;;5010698;28;20037;-65
2023/05/30 02:47:30;;;;;;;0.00;0.00;;;11.60;73.90;;;;;;5013047;28;20050;-66
2023/05/30 02:49:55;;;;;;;0.00;0.00;;;11.70;73.90;;;;;;5028961;28;20051;-65
2023/05/30 02:52:21;;;;;;;0.00;0.00;;;11.70;73.90;;;;;;5013288;28;20033;-65
2023/05/30 02:54:48;;;;;;;0.10;0.10;;;11.70;74.10;;;;;;5030024;28;20494;-66
2023/05/30 02:57:14;;;;;;;0.00;0.00;;;11.70;74.00;;;;;;5030534;28;20053;-65
2023/05/30 02:59:39;;;;;;;0.00;0.00;;;11.70;74.00;;;;;;5029953;28;20049;-65
2023/05/30 03:02:05;;;;;;;0.10;0.10;;;11.70;74.10;;;;;;5030144;28;20037;-65
2023/05/30 03:04:31;;;;;;;0.00;0.00;;;11.70;74.20;;;;;;5026072;28;20088;-65
2023/05/30 03:06:56;;;;;;;0.00;0.00;;;11.70;74.30;;;;;;5011098;28;20064;-65
2023/05/30 03:09:23;;;;;;;0.00;0.00;;;11.70;74.30;;;;;;5029791;28;20045;-66
2023/05/30 03:11:48;;;;;;;0.10;0.10;;;11.80;74.20;;;;;;4996287;28;20049;-65
2023/05/30 03:14:15;;;;;;;0.00;0.00;;;11.80;74.40;;;;;;5030054;28;20053;-66
2023/05/30 03:16:40;;;;;;;0.00;0.00;;;11.80;74.30;;;;;;5030193;28;20049;-66
2023/05/30 03:19:06;;;;;;;0.00;0.00;;;11.80;74.40;;;;;;5010132;28;20053;-65
2023/05/30 03:21:33;;;;;;;0.25;0.25;;;11.80;74.50;;;;;;5029738;28;20410;-66
2023/05/30 03:23:59;;;;;;;0.00;0.00;;;11.80;74.30;;;;;;5029577;28;20042;-65
2023/05/30 03:26:25;;;;;;;0.00;0.00;;;11.80;74.40;;;;;;5012128;28;20057;-65
2023/05/30 03:28:51;;;;;;;0.00;0.00;;;11.90;74.40;;;;;;5029153;28;20084;-65
2023/05/30 03:31:18;;;;;;;0.00;0.00;;;11.90;74.50;;;;;;5030185;28;20041;-66
2023/05/30 03:33:44;;;;;;;0.00;0.00;;;11.90;74.50;;;;;;5011377;28;20186;-65
2023/05/30 03:36:13;;;;;;;0.20;0.20;;;11.90;74.40;;;;;;5029562;28;20469;-65
2023/05/30 03:38:38;;;;;;;0.00;0.00;;;11.80;74.50;;;;;;5010375;28;20041;-65
2023/05/30 03:41:05;;;;;;;0.00;0.00;;;11.90;74.70;;;;;;5029032;28;20041;-64
2023/05/30 03:43:30;;;;;;;0.00;0.00;;;11.90;74.80;;;;;;5029507;28;20079;-65
2023/05/30 03:45:56;;;;;;;1.25;0.90;;;11.90;74.50;;;;;;5029285;28;20077;-65
2023/05/30 03:48:22;;;;;;;0.00;0.00;;;11.90;74.80;;;;;;5011835;28;20049;-65
2023/05/30 03:50:47;;;;;;;1.40;1.30;;;11.90;74.80;;;;;;5011146;28;20037;-65
2023/05/30 03:53:14;;;;;;;0.08;0.08;;;11.80;74.80;;;;;;5029310;28;20061;-65
2023/05/30 03:55:40;;;;;;;0.00;0.00;;;11.80;74.80;;;;;;5011584;28;20055;-65
2023/05/30 03:58:05;;;;;;;0.00;0.00;;;11.80;74.90;;;;;;5028849;28;20045;-65
2023/05/30 04:00:31;;;;;;;0.00;0.00;;;11.80;74.80;;;;;;5027799;28;20099;-66
2023/05/30 04:02:59;;;;;;;0.00;0.00;;;11.80;74.90;;;;;;5029365;28;20048;-65
2023/05/30 04:05:28;;;;;;;0.00;0.00;;;11.80;74.90;;;;;;5028908;28;20045;-65
2023/05/30 04:07:53;;;;;;;0.00;0.00;;;11.90;74.80;;;;;;5029140;28;20136;-65
2023/05/30 04:10:19;;;;;;;0.00;0.00;;;11.80;75.00;;;;;;5027891;28;20128;-66
2023/05/30 04:12:44;;;;;;;0.00;0.00;;;11.80;74.80;;;;;;5029064;28;20045;-65
2023/05/30 04:15:10;;;;;;;0.10;0.10;;;11.80;74.60;;;;;;5028820;28;20053;-66
2023/05/30 04:17:36;;;;;;;0.00;0.00;;;11.80;74.50;;;;;;5028233;28;20120;-65
2023/05/30 04:20:05;;;;;;;0.00;0.00;;;11.90;74.60;;;;;;5028498;28;20454;-65
2023/05/30 04:22:32;;;;;;;0.00;0.00;;;11.90;74.60;;;;;;4991717;28;20129;-65
2023/05/30 04:24:58;;;;;;;0.03;0.03;;;11.90;74.50;;;;;;5001256;28;20152;-65
2023/05/30 04:27:24;;;;;;;0.55;0.55;;;11.90;74.50;;;;;;5028984;28;20041;-66
2023/05/30 04:29:50;;;;;;;0.00;0.00;;;11.90;74.40;;;;;;5027971;28;20048;-66
2023/05/30 04:32:16;;;;;;;0.73;0.50;;;12.00;74.50;;;;;;5027963;28;20049;-66
2023/05/30 04:34:43;;;;;;;0.00;0.00;;;12.00;74.50;;;;;;5029336;28;20125;-65
2023/05/30 04:37:11;;;;;;;0.17;0.17;;;12.00;74.50;;;;;;5031351;28;20046;-65
2023/05/30 04:39:37;;;;;;;1.55;1.45;;;12.00;74.30;;;;;;5028647;28;20045;-65
2023/05/30 04:42:04;;;;;;;0.00;0.00;;;12.00;74.30;;;;;;5027855;28;20128;-66
2023/05/30 04:44:37;;;;;;;0.30;0.30;;;12.00;74.20;;;;;;5032818;28;20053;-65
2023/05/30 04:47:05;;;;;;;0.00;0.00;;;12.00;74.40;;;;;;4983381;28;20046;-65
2023/05/30 04:49:31;;;;;;;0.00;0.00;;;12.10;74.30;;;;;;4993089;28;20128;-65
2023/05/30 04:51:57;;;;;;;0.00;0.00;;;12.10;74.60;;;;;;5032447;28;20053;-65
2023/05/30 04:54:22;;;;;;;0.20;0.20;;;12.10;74.60;;;;;;5015173;28;20053;-65
2023/05/30 04:56:48;;;;;;;0.00;0.00;;;12.10;74.70;;;;;;5015124;28;20045;-65
2023/05/30 04:59:15;;;;;;;0.00;0.00;;;12.10;74.70;;;;;;5014575;28;20081;-66
2023/05/30 05:01:41;;;;;;;0.00;0.00;;;12.10;74.60;;;;;;5014548;28;20425;-65
2023/05/30 05:04:06;;;;;;;0.13;0.13;;;12.10;74.50;;;;;;5014829;28;20049;-66
2023/05/30 05:06:32;;;;;;;0.00;0.00;;;12.10;74.60;;;;;;5031986;28;20087;-67
2023/05/30 05:08:57;;;;;;;0.00;0.00;;;12.10;74.90;;;;;;5014025;28;20426;-65
2023/05/30 05:11:23;;;;;;;0.00;0.00;;;12.20;74.60;;;;;;5029909;28;20461;-65
2023/05/30 05:13:48;;;;;;;0.05;0.05;;;12.20;75.10;;;;;;5031973;28;20083;-65
2023/05/30 05:16:15;;;;;;;0.10;0.10;;;12.10;75.40;;;;;;5022947;28;20057;-65
2023/05/30 05:18:40;;;;;;;0.20;0.20;;;12.10;75.00;;;;;;5032056;28;20667;-65
2023/05/30 05:21:06;;;;;;;0.00;0.00;;;12.10;75.40;;;;;;5029633;28;20047;-65
2023/05/30 05:23:32;;;;;;;0.00;0.00;;;12.10;75.30;;;;;;5031922;28;20107;-65
2023/05/30 05:26:00;;;;;;;0.00;0.00;;;12.10;75.30;;;;;;5031375;28;20084;-66
2023/05/30 05:28:25;;;;;;;0.40;0.40;;;12.10;75.60;;;;;;5031930;28;20050;-66
2023/05/30 05:30:51;;;;;;;0.00;0.00;;;12.10;75.50;;;;;;5023654;28;20056;-66
2023/05/30 05:33:16;;;;;;;0.00;0.00;;;12.10;75.90;;;;;;5003842;28;20083;-66
2023/05/30 05:35:45;;;;;;;0.05;0.05;;;12.00;76.50;;;;;;5031555;28;20129;-66
2023/05/30 05:38:11;;;;;;;0.00;0.00;;;12.00;76.90;;;;;;5019606;28;20140;-66
2023/05/30 05:40:36;;;;;;;0.00;0.00;;;12.10;76.70;;;;;;5024432;28;20046;-66
2023/05/30 05:43:02;;;;;;;0.75;0.75;;;12.10;76.10;;;;;;5030986;28;20678;-66
2023/05/30 05:45:27;;;;;;;0.00;0.00;;;12.10;76.20;;;;;;5028486;28;20077;-66
2023/05/30 05:47:53;;;;;;;0.00;0.00;;;12.10;76.30;;;;;;5012400;28;20050;-66
2023/05/30 05:50:18;;;;;;;0.00;0.00;;;12.10;76.60;;;;;;5013040;28;20052;-66
2023/05/30 05:52:44;;;;;;;0.00;0.00;;;12.10;76.30;;;;;;5014059;28;20038;-66
2023/05/30 05:55:10;;;;;;;0.00;0.00;;;12.10;76.40;;;;;;5015622;28;20056;-66
2023/05/30 05:57:35;;;;;;;0.35;0.35;;;12.10;76.70;;;;;;5011947;28;20069;-66
2023/05/30 06:00:02;;;;;;;0.22;0.22;;;12.10;76.70;;;;;;5006530;28;20054;-66
2023/05/30 06:02:27;;;;;;;0.35;0.35;;;12.10;76.80;;;;;;5008811;28;20054;-67
2023/05/30 06:04:53;;;;;;;0.00;0.00;;;12.10;76.60;;;;;;5029238;28;20455;-67
2023/05/30 06:07:18;;;;;;;0.00;0.00;;;12.10;76.60;;;;;;5025249;28;20502;-65
2023/05/30 06:09:44;;;;;;;0.00;0.00;;;12.10;76.60;;;;;;5007076;28;20096;-66
2023/05/30 06:12:10;;;;;;;0.00;0.00;;;12.10;76.80;;;;;;5022757;28;20050;-66
2023/05/30 06:14:35;;;;;;;0.00;0.00;;;12.10;76.80;;;;;;5015208;28;20898;-66
2023/05/30 06:17:01;;;;;;;0.20;0.20;;;12.10;76.90;;;;;;5026381;28;20399;-65
2023/05/30 06:19:27;;;;;;;0.00;0.00;;;12.10;77.20;;;;;;5012585;28;20041;-65
2023/05/30 06:21:52;;;;;;;0.00;0.00;;;12.20;77.40;;;;;;4990550;28;20057;-66
2023/05/30 06:24:18;;;;;;;0.00;0.00;;;12.10;77.50;;;;;;5019765;28;20073;-65
2023/05/30 06:26:43;;;;;;;0.10;0.10;;;12.20;77.70;;;;;;5011726;28;20140;-68
2023/05/30 06:29:10;;;;;;;0.00;0.00;;;12.20;77.90;;;;;;5018326;28;20104;-66
2023/05/30 06:31:36;;;;;;;0.00;0.00;;;12.20;77.80;;;;;;5018987;28;20049;-66
2023/05/30 06:34:01;;;;;;;0.15;0.15;;;12.30;77.40;;;;;;5019165;28;20057;-65
2023/05/30 06:36:27;;;;;;;0.00;0.00;;;12.40;77.10;;;;;;4985626;28;20045;-65
2023/05/30 06:38:53;;;;;;;0.00;0.00;;;12.30;77.30;;;;;;5001291;28;20041;-65
2023/05/30 06:41:18;;;;;;;0.00;0.00;;;12.30;77.40;;;;;;5000565;28;20466;-65
2023/05/30 06:43:44;;;;;;;0.00;0.00;;;12.30;77.40;;;;;;5016232;28;20037;-65
2023/05/30 06:46:10;;;;;;;0.00;0.00;;;12.30;77.50;;;;;;4985109;28;20065;-66
2023/05/30 06:48:35;;;;;;;0.00;0.00;;;12.40;77.70;;;;;;5018701;28;20065;-65
2023/05/30 06:51:01;;;;;;;0.00;0.00;;;12.40;77.60;;;;;;5017615;28;21058;-66
2023/05/30 06:53:26;;;;;;;0.00;0.00;;;12.30;77.70;;;;;;5017189;28;20918;-66
2023/05/30 06:55:52;;;;;;;0.00;0.00;;;12.30;77.80;;;;;;4979640;28;20070;-64
2023/05/30 06:58:18;;;;;;;0.00;0.00;;;12.40;78.00;;;;;;4984359;28;20053;-65
2023/05/30 07:00:43;;;;;;;0.00;0.00;;;12.40;78.60;;;;;;5017080;28;20057;-65
2023/05/30 07:03:09;;;;;;;0.00;0.00;;;12.40;78.60;;;;;;5018291;28;20577;-64
2023/05/30 07:05:35;;;;;;;0.00;0.00;;;12.40;78.20;;;;;;5017978;28;20056;-64
2023/05/30 07:08:00;;;;;;;0.00;0.00;;;12.40;78.20;;;;;;5001370;28;20088;-65
2023/05/30 07:10:26;;;;;;;0.00;0.00;;;12.50;78.10;;;;;;4999740;28;20525;-65
2023/05/30 07:12:52;;;;;;;0.00;0.00;;;12.50;78.10;;;;;;5002376;28;20510;-65
2023/05/30 07:15:18;;;;;;;0.00;0.00;;;12.50;78.10;;;;;;5009231;28;20085;-65
2023/05/30 07:17:43;;;;;;;0.00;0.00;;;12.60;78.20;;;;;;5018640;28;20577;-65
2023/05/30 07:20:09;;;;;;;0.00;0.00;;;12.50;78.40;;;;;;5017758;28;20085;-65
2023/05/30 07:22:34;;;;;;;0.00;0.00;;;12.50;78.40;;;;;;4984335;28;20047;-65
2023/05/30 07:25:00;;;;;;;0.10;0.10;;;12.60;78.60;;;;;;4999614;28;20041;-66
2023/05/30 07:27:26;;;;;;;0.00;0.00;;;12.60;78.60;;;;;;5001324;28;20034;-65
2023/05/30 07:29:51;;;;;;;0.00;0.00;;;12.60;78.80;;;;;;4998340;28;20131;-65
2023/05/30 07:32:17;;;;;;;0.03;0.03;;;12.60;78.70;;;;;;4999197;28;20127;-65
2023/05/30 07:34:42;;;;;;;0.00;0.00;;;12.60;78.80;;;;;;5019140;28;20064;-65
2023/05/30 07:37:08;;;;;;;0.00;0.00;;;12.60;78.90;;;;;;5017985;28;20048;-66
2023/05/30 07:39:35;;;;;;;0.00;0.00;;;12.60;78.80;;;;;;5001315;28;20068;-66
2023/05/30 07:42:00;;;;;;;0.00;0.00;;;12.60;79.30;;;;;;5017630;28;20403;-66
2023/05/30 07:44:26;;;;;;;0.00;0.00;;;12.60;79.40;;;;;;5017656;28;20038;-65
2023/05/30 07:46:52;;;;;;;0.00;0.00;;;12.60;79.20;;;;;;4983569;28;20073;-65
2023/05/30 07:49:19;;;;;;;0.00;0.00;;;12.60;79.30;;;;;;5017555;28;20202;-65
2023/05/30 07:51:45;;;;;;;0.00;0.00;;;12.70;79.50;;;;;;4999602;28;20053;-64
2023/05/30 07:54:10;;;;;;;0.00;0.00;;;12.80;79.50;;;;;;5017880;28;20045;-65
2023/05/30 07:56:36;;;;;;;0.10;0.10;;;12.80;79.50;;;;;;4999454;28;20052;-65
2023/05/30 07:59:01;;;;;;;0.00;0.00;;;12.90;79.30;;;;;;4999722;28;20134;-65
2023/05/30 08:01:27;;;;;;;0.00;0.00;;;12.90;79.30;;;;;;4999395;28;20048;-65
2023/05/30 08:03:53;;;;;;;0.00;0.00;;;12.90;79.30;;;;;;5015190;28;20053;-65
2023/05/30 08:06:20;;;;;;;0.00;0.00;;;13.00;79.10;;;;;;5017392;28;20056;-65
2023/05/30 08:08:46;;;;;;;0.00;0.00;;;13.00;79.00;;;;;;5017103;28;20402;-65
2023/05/30 08:11:13;;;;;;;0.00;0.00;;;13.00;78.90;;;;;;5014011;28;20049;-65
2023/05/30 08:13:39;;;;;;;0.00;0.00;;;12.90;79.00;;;;;;5016616;28;20049;-65
2023/05/30 08:16:09;;;;;;;0.00;0.00;;;13.00;78.90;;;;;;5016986;28;20049;-66
2023/05/30 08:18:36;;;;;;;0.00;0.00;;;13.00;79.00;;;;;;5017972;28;20052;-65
2023/05/30 08:21:01;;;;;;;0.00;0.00;;;12.90;79.20;;;;;;5016762;28;20065;-65
2023/05/30 08:23:27;;;;;;;0.00;0.00;;;12.90;80.00;;;;;;5015178;28;20042;-65
2023/05/30 08:25:53;;;;;;;0.00;0.00;;;13.00;80.10;;;;;;5017300;28;20442;-64
2023/05/30 08:28:20;;;;;;;0.00;0.00;;;13.00;80.00;;;;;;4998166;28;20042;-64
2023/05/30 08:30:49;;;;;;;0.43;0.43;;;13.10;80.30;;;;;;5000519;28;20064;-65
2023/05/30 08:33:16;;;;;;;0.00;0.00;;;13.10;80.00;;;;;;5016609;28;20052;-65
2023/05/30 08:35:42;;;;;;;0.00;0.00;;;13.10;80.00;;;;;;4998111;28;20046;-63
2023/05/30 08:38:07;;;;;;;0.00;0.00;;;13.10;79.90;;;;;;5017359;28;20044;-65
2023/05/30 08:40:34;;;;;;;0.00;0.00;;;13.10;79.80;;;;;;5017646;28;20045;-64
2023/05/30 08:43:00;;;;;;;0.00;0.00;;;13.20;79.80;;;;;;5016910;28;20427;-64
2023/05/30 08:45:26;;;;;;;0.00;0.00;;;13.30;79.70;;;;;;4998289;28;20160;-65
2023/05/30 08:47:54;;;;;;;0.00;0.00;;;13.40;79.40;;;;;;5018086;28;20088;-65
2023/05/30 08:50:21;;;;;;;0.00;0.00;;;13.50;79.30;;;;;;4983360;28;20185;-64
2023/05/30 08:52:51;;;;;;;0.00;0.00;;;13.60;78.80;;;;;;5017479;28;20049;-64
2023/05/30 08:55:34;;;;;;;0.00;0.00;;;13.60;78.50;;;;;;5016705;28;20127;-64
2023/05/30 08:58:24;;;;;;;0.00;0.00;;;13.60;78.20;;;;;;4996818;28;20064;-64
2023/05/30 09:00:52;;;;;;;0.00;0.00;;;13.70;77.50;;;;;;5016681;28;20498;-64
2023/05/30 09:03:20;;;;;;;0.00;0.00;;;13.80;77.30;;;;;;5017826;28;20733;-65
2023/05/30 09:05:46;;;;;;;0.00;0.00;;;13.80;77.10;;;;;;5016418;28;20104;-65
2023/05/30 09:08:13;;;;;;;0.00;0.00;;;13.80;76.50;;;;;;5016541;28;20517;-64
2023/05/30 09:10:48;;;;;;;0.00;0.00;;;13.90;76.30;;;;;;5016138;28;20088;-64
2023/05/30 09:13:17;;;;;;;0.00;0.00;;;13.90;76.40;;;;;;5016594;28;20037;-65
2023/05/30 09:15:43;;;;;;;0.45;0.45;;;13.80;76.20;;;;;;4982439;28;20041;-65
2023/05/30 09:18:09;;;;;;;0.10;0.10;;;13.70;76.70;;;;;;5015652;28;20407;-65
2023/05/30 09:20:37;;;;;;;0.00;0.00;;;13.70;76.70;;;;;;5016174;28;20045;-65
2023/05/30 09:23:03;;;;;;;0.00;0.00;;;13.70;76.90;;;;;;5019789;28;20068;-66
2023/05/30 09:25:41;;;;;;;0.00;0.00;;;13.70;76.90;;;;;;5019899;28;20498;-65
2023/05/30 09:28:06;;;;;;;0.00;0.00;;;13.60;77.10;;;;;;5019289;28;20482;-65
2023/05/30 09:30:32;;;;;;;0.00;0.00;;;13.60;77.20;;;;;;5003374;28;20053;-66
2023/05/30 09:33:02;;;;;;;0.00;0.00;;;13.50;77.40;;;;;;5020086;28;20052;-65
2023/05/30 09:35:27;;;;;;;0.00;0.00;;;13.40;77.50;;;;;;5020475;28;20042;-65
2023/05/30 09:37:53;;;;;;;0.00;0.00;;;13.40;77.70;;;;;;5020237;28;20092;-65
2023/05/30 09:40:18;;;;;;;0.00;0.00;;;13.40;78.00;;;;;;5018947;28;20092;-65
2023/05/30 09:42:49;;;;;;;0.00;0.00;;;13.50;78.10;;;;;;5003331;28;20048;-65
2023/05/30 09:45:16;;;;;;;0.00;0.00;;;13.50;78.30;;;;;;5020656;28;20560;-65
2023/05/30 09:47:42;;;;;;;0.00;0.00;;;13.60;78.50;;;;;;5019428;28;20038;-66
2023/05/30 09:50:09;;;;;;;0.00;0.00;;;13.70;77.80;;;;;;5020196;28;20542;-65
2023/05/30 09:52:36;;;;;;;0.00;0.00;;;13.70;77.70;;;;;;5019457;28;20418;-65
2023/05/30 09:55:06;;;;;;;0.00;0.00;;;13.70;77.30;;;;;;5001819;28;20042;-65
2023/05/30 09:57:39;;;;;;;0.00;0.00;;;13.70;77.00;;;;;;5020878;28;20042;-65
2023/05/30 10:00:15;;;;;;;0.00;0.00;;;13.60;77.10;;;;;;5003101;28;20042;-65
2023/05/30 10:02:52;;;;;;;0.00;0.00;;;13.60;77.40;;;;;;5019837;28;20056;-65
2023/05/30 10:05:20;;;;;;;0.00;0.00;;;13.60;77.30;;;;;;5020558;28;20053;-66
2023/05/30 10:07:51;;;;;;;0.00;0.00;;;13.60;77.30;;;;;;5020397;28;20069;-65
2023/05/30 10:10:17;;;;;;;0.00;0.00;;;13.60;77.10;;;;;;5018376;28;20116;-65
2023/05/30 10:12:53;;;;;;;0.00;0.00;;;13.60;77.00;;;;;;5018698;28;20549;-65
2023/05/30 10:15:21;;;;;;;0.00;0.00;;;13.60;76.80;;;;;;5001589;28;20274;-65
2023/05/30 10:17:59;;;;;;;0.00;0.00;;;13.60;77.00;;;;;;5016872;28;20388;-65
2023/05/30 10:20:26;;;;;;;0.00;0.00;;;13.80;76.90;;;;;;5001300;28;20042;-65
2023/05/30 10:22:52;;;;;;;0.00;0.00;;;13.80;76.30;;;;;;5017461;28;20092;-64
2023/05/30 10:25:19;;;;;;;0.00;0.00;;;13.90;75.70;;;;;;5019131;28;20598;-64
2023/05/30 10:27:49;;;;;;;0.00;0.00;;;13.90;75.90;;;;;;5019321;28;20092;-65
2023/05/30 10:30:21;;;;;;;0.00;0.00;;;13.90;76.00;;;;;;4985222;28;20546;-65
2023/05/30 10:32:53;;;;;;;0.00;0.00;;;13.90;76.10;;;;;;4997598;28;20069;-65
2023/05/30 10:35:20;;;;;;;0.00;0.00;;;13.90;76.10;;;;;;4992143;28;20779;-65
2023/05/30 10:37:47;;;;;;;0.00;0.00;;;13.80;76.00;;;;;;4975394;28;20054;-65
2023/05/30 10:40:35;;;;;;;0.00;0.00;;;13.80;76.10;;;;;;5029233;28;20037;-65
2023/05/30 10:43:29;;;;;;;0.00;0.00;;;13.80;76.20;;;;;;5029815;28;20456;-65
2023/05/30 10:46:18;;;;;;;0.25;0.25;;;13.80;76.10;;;;;;4953606;28;20608;-64
2023/05/30 10:48:53;;;;;;;0.00;0.00;;;13.90;76.00;;;;;;5030131;28;20570;-65
2023/05/30 10:51:19;;;;;;;0.00;0.00;;;13.90;75.60;;;;;;5028945;28;20051;-65
2023/05/30 10:53:47;;;;;;;0.00;0.00;;;13.90;75.40;;;;;;5006278;28;20631;-65
2023/05/30 10:56:34;;;;;;;0.00;0.00;;;13.90;75.40;;;;;;5024228;28;20461;-65
2023/05/30 10:59:01;;;;;;;0.00;0.00;;;14.00;75.40;;;;;;5023030;28;20045;-65
2023/05/30 11:01:32;;;;;;;0.00;0.00;;;14.10;75.20;;;;;;5010610;28;20088;-65
2023/05/30 11:04:02;;;;;;;0.00;0.00;;;14.20;74.80;;;;;;5011277;28;20052;-64
2023/05/30 11:06:35;;;;;;;0.00;0.00;;;14.20;74.80;;;;;;5029591;28;20103;-64
2023/05/30 11:09:08;;;;;;;0.00;0.00;;;14.30;74.90;;;;;;5029650;28;20049;-63
2023/05/30 11:11:40;;;;;;;0.00;0.00;;;14.30;74.70;;;;;;5029753;28;20112;-64
2023/05/30 11:14:06;;;;;;;0.00;0.00;;;14.30;74.10;;;;;;5029853;28;20093;-64
2023/05/30 11:16:32;;;;;;;0.00;0.00;;;14.40;74.10;;;;;;5029247;28;20053;-65
2023/05/30 11:19:25;;;;;;;0.00;0.00;;;14.40;74.10;;;;;;5029267;28;20038;-65
2023/05/30 11:22:04;;;;;;;0.00;0.00;;;14.40;73.70;;;;;;5025613;28;20087;-65
2023/05/30 11:24:31;;;;;;;0.00;0.00;;;14.40;73.60;;;;;;5011280;28;20494;-65
2023/05/30 11:27:07;;;;;;;0.00;0.00;;;14.50;73.40;;;;;;5029514;28;20033;-66
2023/05/30 11:29:33;;;;;;;0.00;0.00;;;14.60;72.90;;;;;;5029408;28;20080;-65
2023/05/30 11:32:00;;;;;;;0.00;0.00;;;14.60;72.50;;;;;;5028054;28;20084;-66
2023/05/30 11:34:26;;;;;;;0.00;0.00;;;14.60;72.30;;;;;;5016868;28;20049;-65
2023/05/30 11:36:52;;;;;;;0.00;0.00;;;14.60;72.60;;;;;;5024533;28;20440;-66
2023/05/30 11:39:22;;;;;;;0.00;0.00;;;14.60;72.80;;;;;;4997646;28;20049;-65
2023/05/30 11:41:48;;;;;;;0.00;0.00;;;14.50;73.20;;;;;;5028292;28;20044;-66
2023/05/30 11:44:14;;;;;;;0.00;0.00;;;14.50;73.10;;;;;;5028793;28;20087;-66
2023/05/30 11:46:40;;;;;;;0.00;0.00;;;14.50;73.40;;;;;;5027986;28;20056;-66
2023/05/30 11:49:06;;;;;;;0.00;0.00;;;14.50;73.40;;;;;;5029381;28;20045;-66
2023/05/30 11:51:32;;;;;;;0.00;0.00;;;14.60;73.20;;;;;;5029034;28;20046;-67
2023/05/30 11:53:58;;;;;;;0.00;0.00;;;14.60;73.30;;;;;;5029440;28;20182;-66
2023/05/30 11:56:31;;;;;;;0.00;0.00;;;14.60;73.40;;;;;;5028204;28;20057;-66
2023/05/30 11:58:57;;;;;;;0.00;0.00;;;14.60;73.30;;;;;;5028988;28;20046;-66
2023/05/30 12:01:24;;;;;;;0.00;0.00;;;14.80;73.00;;;;;;5028204;28;20041;-66
2023/05/30 12:03:50;;;;;;;0.00;0.00;;;14.80;72.60;;;;;;5010392;28;20041;-66
2023/05/30 12:06:16;;;;;;;0.00;0.00;;;14.90;72.50;;;;;;5028500;28;20243;-65
2023/05/30 12:08:42;;;;;;;0.00;0.00;;;15.10;72.40;;;;;;5028124;28;20057;-66
2023/05/30 12:11:15;;;;;;;0.00;0.00;;;15.20;72.50;;;;;;5010903;28;20115;-66
2023/05/30 12:13:42;;;;;;;0.00;0.00;;;15.20;71.40;;;;;;4993504;28;20587;-65
2023/05/30 12:16:10;;;;;;;0.00;0.00;;;15.30;71.60;;;;;;5008316;28;20050;-66
2023/05/30 12:18:36;;;;;;;0.00;0.00;;;15.50;71.20;;;;;;5009603;28;20462;-67
2023/05/30 12:21:03;;;;;;;0.00;0.00;;;15.60;70.80;;;;;;5028243;28;20064;-66
2023/05/30 12:23:29;;;;;;;0.00;0.00;;;15.60;70.70;;;;;;5027779;28;20098;-66
2023/05/30 12:25:55;;;;;;;0.10;0.10;;;15.60;70.30;;;;;;5028770;28;20046;-65
2023/05/30 12:28:22;;;;;;;0.00;0.00;;;15.60;70.10;;;;;;5011070;28;20445;-66
2023/05/30 12:30:50;;;;;;;0.00;0.00;;;15.70;69.70;;;;;;5010688;28;20053;-66
2023/05/30 12:33:18;;;;;;;0.00;0.00;;;15.60;69.90;;;;;;5024156;28;20115;-66
2023/05/30 12:35:44;;;;;;;0.00;0.00;;;15.60;69.70;;;;;;5029484;28;20041;-66
2023/05/30 12:38:18;;;;;;;0.00;0.00;;;15.60;70.10;;;;;;5021008;28;20049;-66
2023/05/30 12:40:48;;;;;;;0.00;0.00;;;15.50;70.20;;;;;;5028467;28;20120;-66
2023/05/30 12:43:27;;;;;;;0.00;0.00;;;15.50;70.70;;;;;;5028349;28;20168;-67
2023/05/30 12:45:57;;;;;;;0.00;0.00;;;15.40;71.00;;;;;;5004119;28;20777;-67
2023/05/30 12:48:22;;;;;;;0.00;0.00;;;15.40;71.20;;;;;;5027374;28;20100;-65
2023/05/30 12:50:48;;;;;;;0.00;0.00;;;15.40;71.30;;;;;;5028406;28;20038;-66